createdAt,value
2023-04-03T00:02:46.710Z,2.20
2023-04-03T00:05:49.440Z,2.00
2023-04-03T00:08:52.420Z,1.93
2023-04-03T00:11:55.088Z,1.80
2023-04-03T00:14:57.702Z,1.97
2023-04-03T00:18:02.241Z,2.20
2023-04-03T00:21:05.643Z,1.67
2023-04-03T00:24:08.508Z,2.10
2023-04-03T00:27:12.048Z,1.60
2023-04-03T00:30:17.618Z,1.87
2023-04-03T00:33:22.623Z,1.73
2023-04-03T00:36:25.479Z,2.00
2023-04-03T00:39:28.237Z,1.97
2023-04-03T00:42:30.987Z,2.00
2023-04-03T00:45:37.298Z,2.00
2023-04-03T00:48:44.255Z,1.80
2023-04-03T00:51:47.329Z,2.17
2023-04-03T00:54:52.086Z,1.90
2023-04-03T00:57:56.924Z,1.90
2023-04-03T01:01:00.917Z,2.20
2023-04-03T01:04:06.876Z,1.90
2023-04-03T01:07:12.524Z,2.40
2023-04-03T01:10:18.086Z,2.13
2023-04-03T01:13:27.552Z,2.10
2023-04-03T01:16:31.955Z,2.33
2023-04-03T01:19:40.679Z,2.33
2023-04-03T01:22:52.720Z,2.43
2023-04-03T01:25:57.496Z,2.13
2023-04-03T01:29:01.802Z,2.00
2023-04-03T01:32:06.416Z,2.07
2023-04-03T01:35:11.015Z,1.70
2023-04-03T01:38:13.579Z,2.37
2023-04-03T01:41:16.855Z,2.03
2023-04-03T01:44:19.557Z,2.13
2023-04-03T01:47:24.101Z,2.20
2023-04-03T01:50:26.828Z,2.03
2023-04-03T01:53:29.442Z,2.43
2023-04-03T01:56:32.320Z,2.33
2023-04-03T01:59:34.952Z,2.10
2023-04-03T02:02:38.988Z,2.20
2023-04-03T02:05:41.578Z,2.10
2023-04-03T02:08:44.176Z,2.23
2023-04-03T02:11:46.760Z,2.50
2023-04-03T02:14:49.378Z,1.97
2023-04-03T02:17:53.770Z,1.90
2023-04-03T02:20:56.391Z,2.47
2023-04-03T02:23:59.000Z,2.47
2023-04-03T02:27:01.644Z,2.27
2023-04-03T02:30:05.030Z,2.37
2023-04-03T02:33:08.971Z,1.93
2023-04-03T02:36:11.672Z,2.20
2023-04-03T02:39:14.357Z,2.50
2023-04-03T02:42:16.999Z,1.97
2023-04-03T02:45:19.590Z,2.00
2023-04-03T02:48:23.599Z,2.10
2023-04-03T02:51:26.305Z,2.57
2023-04-03T02:54:31.370Z,1.90
2023-04-03T02:57:34.016Z,2.37
2023-04-03T03:00:36.841Z,2.50
2023-04-03T03:03:40.981Z,2.30
2023-04-03T03:06:44.927Z,2.20
2023-04-03T03:09:47.698Z,2.07
2023-04-03T03:12:50.735Z,2.20
2023-04-03T03:15:53.334Z,1.80
2023-04-03T03:18:57.989Z,2.63
2023-04-03T03:22:01.860Z,2.20
2023-04-03T03:25:04.958Z,1.90
2023-04-03T03:28:08.144Z,2.00
2023-04-03T03:31:11.545Z,2.10
2023-04-03T03:34:15.571Z,1.83
2023-04-03T03:37:18.159Z,2.10
2023-04-03T03:40:20.950Z,2.40
2023-04-03T03:43:23.590Z,1.97
2023-04-03T03:46:26.298Z,2.20
2023-04-03T03:49:30.313Z,2.47
2023-04-03T03:52:32.895Z,1.47
2023-04-03T03:55:35.915Z,2.20
2023-04-03T03:58:38.834Z,2.00
2023-04-03T04:01:41.665Z,2.33
2023-04-03T04:04:45.622Z,1.97
2023-04-03T04:07:51.750Z,2.37
2023-04-03T04:10:54.800Z,2.00
2023-04-03T04:13:57.406Z,2.27
2023-04-03T04:17:00.054Z,2.00
2023-04-03T04:20:05.936Z,2.00
2023-04-03T04:23:08.599Z,2.07
2023-04-03T04:26:11.353Z,2.00
2023-04-03T04:29:14.004Z,9.37
2023-04-03T04:32:16.614Z,3.03
2023-04-03T04:35:20.729Z,2.10
2023-04-03T04:38:23.496Z,2.13
2023-04-03T04:41:26.194Z,2.43
2023-04-03T04:44:28.809Z,2.20
2023-04-03T04:47:31.653Z,2.20
2023-04-03T04:50:35.743Z,2.10
2023-04-03T04:53:38.712Z,2.57
2023-04-03T04:56:41.361Z,2.10
2023-04-03T04:59:43.947Z,2.10
2023-04-03T05:02:46.562Z,2.17
2023-04-03T05:05:50.533Z,2.40
2023-04-03T05:08:53.111Z,2.00
2023-04-03T05:11:56.112Z,2.60
2023-04-03T05:14:58.724Z,1.77
2023-04-03T05:18:01.450Z,2.10
2023-04-03T05:21:05.902Z,2.07
2023-04-03T05:24:10.190Z,2.00
2023-04-03T05:27:12.801Z,2.47
2023-04-03T05:30:15.836Z,1.97
2023-04-03T05:33:18.417Z,2.27
2023-04-03T05:36:22.460Z,2.20
2023-04-03T05:39:25.233Z,2.57
2023-04-03T05:42:27.950Z,2.17
2023-04-03T05:45:30.809Z,2.23
2023-04-03T05:48:33.365Z,2.73
2023-04-03T05:51:38.560Z,2.70
2023-04-03T05:54:41.113Z,2.40
2023-04-03T05:57:43.945Z,2.40
2023-04-03T06:00:46.535Z,2.53
2023-04-03T06:03:49.326Z,2.90
2023-04-03T06:06:58.636Z,2.60
2023-04-03T06:10:01.391Z,2.87
2023-04-03T06:13:04.236Z,3.33
2023-04-03T06:16:07.625Z,3.20
2023-04-03T06:19:10.896Z,2.77
2023-04-03T06:22:15.515Z,2.87
2023-04-03T06:25:19.688Z,2.60
2023-04-03T06:28:22.283Z,2.17
2023-04-03T06:31:25.402Z,2.73
2023-04-03T06:34:28.550Z,2.83
2023-04-03T06:37:33.282Z,2.60
2023-04-03T06:40:36.659Z,2.33
2023-04-03T06:43:39.514Z,3.83
2023-04-03T06:46:42.198Z,2.77
2023-04-03T06:49:45.667Z,2.37
2023-04-03T06:52:49.617Z,2.20
2023-04-03T06:55:52.194Z,2.10
2023-04-03T06:58:55.735Z,2.30
2023-04-03T07:01:59.652Z,3.03
2023-04-03T07:05:02.327Z,6.93
2023-04-03T07:08:07.159Z,4.50
2023-04-03T07:11:10.902Z,4.07
2023-04-03T07:14:13.484Z,8.00
2023-04-03T07:17:16.110Z,8.00
2023-04-03T07:20:18.880Z,11.40
2023-04-03T07:23:22.989Z,10.37
2023-04-03T07:26:26.565Z,4.30
2023-04-03T07:29:29.539Z,2.17
2023-04-03T07:32:32.116Z,1.67
2023-04-03T07:35:34.787Z,1.80
2023-04-03T07:38:39.326Z,2.10
2023-04-03T07:41:42.093Z,1.93
2023-04-03T07:44:44.750Z,1.73
2023-04-03T07:47:47.538Z,1.40
2023-04-03T07:50:51.412Z,1.47
2023-04-03T07:53:55.648Z,1.50
2023-04-03T07:56:58.610Z,1.20
2023-04-03T08:00:01.227Z,1.53
2023-04-03T08:03:03.976Z,1.87
2023-04-03T08:06:11.876Z,1.40
2023-04-03T08:09:19.616Z,1.30
2023-04-03T08:12:22.199Z,1.37
2023-04-03T08:15:25.037Z,1.53
2023-04-03T08:18:28.488Z,1.30
2023-04-03T08:21:31.328Z,1.53
2023-04-03T08:24:36.492Z,1.10
2023-04-03T08:27:40.443Z,1.20
2023-04-03T08:30:44.688Z,1.10
2023-04-03T08:33:47.433Z,1.57
2023-04-03T08:36:50.276Z,1.40
2023-04-03T08:39:54.354Z,1.90
2023-04-03T08:43:21.112Z,0.90
2023-04-03T08:46:28.367Z,0.90
2023-04-03T08:49:34.952Z,1.00
2023-04-03T08:52:42.776Z,0.90
2023-04-03T08:55:48.527Z,0.90
2023-04-03T08:58:55.827Z,1.10
2023-04-03T09:02:00.457Z,0.93
2023-04-03T09:05:04.402Z,1.00
2023-04-03T09:08:13.681Z,0.97
2023-04-03T09:11:24.209Z,1.17
2023-04-03T09:14:35.138Z,0.90
2023-04-03T09:17:44.426Z,1.00
2023-04-03T09:20:55.871Z,1.00
2023-04-03T09:24:01.497Z,0.90
2023-04-03T09:27:08.955Z,2.40
2023-04-03T09:30:17.040Z,0.93
2023-04-03T09:33:19.907Z,1.10
2023-04-03T09:36:43.252Z,0.90
2023-04-03T09:39:56.983Z,0.90
2023-04-03T09:43:02.934Z,0.90
2023-04-03T09:46:25.168Z,1.10
2023-04-03T09:49:27.992Z,1.30
2023-04-03T09:52:32.383Z,1.10
2023-04-03T09:55:43.824Z,0.93
2023-04-03T09:58:51.290Z,1.00
2023-04-03T10:02:02.057Z,0.73
2023-04-03T10:05:09.932Z,1.10
2023-04-03T10:08:24.823Z,0.90
2023-04-03T10:11:27.767Z,1.10
2023-04-03T10:14:31.986Z,0.97
2023-04-03T10:17:47.271Z,1.30
2023-04-03T10:20:53.249Z,1.23
2023-04-03T10:24:08.037Z,1.47
2023-04-03T10:27:14.869Z,1.40
2023-04-03T10:30:38.552Z,1.10
2023-04-03T10:33:57.884Z,1.23
2023-04-03T10:37:08.223Z,1.37
2023-04-03T10:40:21.425Z,1.10
2023-04-03T10:43:33.933Z,1.20
2023-04-03T10:46:40.515Z,1.20
2023-04-03T10:49:59.427Z,1.00
2023-04-03T10:53:10.092Z,1.00
2023-04-03T10:56:17.815Z,4.50
2023-04-03T10:59:30.226Z,1.67
2023-04-03T11:02:39.496Z,1.27
2023-04-03T11:05:46.385Z,0.93
2023-04-03T11:08:57.604Z,0.73
2023-04-03T11:12:06.664Z,0.93
2023-04-03T11:15:15.867Z,1.23
2023-04-03T11:18:24.838Z,0.93
2023-04-03T11:21:32.096Z,0.90
2023-04-03T11:24:36.012Z,0.80
2023-04-03T11:27:44.620Z,1.50
2023-04-03T11:30:52.403Z,1.13
2023-04-03T11:34:09.761Z,0.97
2023-04-03T11:37:23.927Z,1.37
2023-04-03T11:40:30.982Z,1.00
2023-04-03T11:43:35.381Z,1.00
2023-04-03T11:46:57.626Z,1.20
2023-04-03T11:50:03.745Z,0.97
2023-04-03T11:53:37.004Z,1.10
2023-04-03T11:56:39.631Z,0.93
2023-04-03T11:59:42.927Z,1.10
2023-04-03T12:02:53.686Z,1.20
2023-04-03T12:06:19.387Z,4.40
2023-04-03T12:09:27.935Z,0.90
2023-04-03T12:12:39.666Z,0.93
2023-04-03T12:15:58.030Z,1.10
2023-04-03T12:19:04.233Z,1.03
2023-04-03T12:22:17.885Z,1.10
2023-04-03T12:25:50.684Z,1.00
2023-04-03T12:28:54.749Z,1.00
2023-04-03T12:32:11.562Z,1.03
2023-04-03T12:35:23.674Z,1.20
2023-04-03T12:39:04.253Z,0.90
2023-04-03T12:42:25.642Z,0.90
2023-04-03T12:45:30.070Z,0.87
2023-04-03T12:48:35.713Z,0.80
2023-04-03T12:51:41.502Z,1.33
2023-04-03T12:54:48.501Z,1.00
2023-04-03T12:57:51.259Z,1.03
2023-04-03T13:01:05.549Z,1.00
2023-04-03T13:04:08.736Z,1.27
2023-04-03T13:07:22.038Z,0.90
2023-04-03T13:10:26.050Z,0.87
2023-04-03T13:13:28.891Z,1.10
2023-04-03T13:16:32.650Z,0.70
2023-04-03T13:19:35.367Z,1.00
2023-04-03T13:22:44.420Z,2.20
2023-04-03T13:25:50.443Z,0.70
2023-04-03T13:28:53.930Z,1.20
2023-04-03T13:31:58.796Z,0.93
2023-04-03T13:35:15.456Z,0.90
2023-04-03T13:38:27.024Z,1.00
2023-04-03T13:41:34.353Z,0.80
2023-04-03T13:44:40.401Z,1.00
2023-04-03T13:47:44.984Z,1.20
2023-04-03T13:51:18.767Z,0.80
2023-04-03T13:54:23.990Z,0.80
2023-04-03T13:57:28.265Z,0.90
2023-04-03T14:00:40.248Z,1.17
2023-04-03T14:03:47.909Z,1.10
2023-04-03T14:06:52.402Z,1.00
2023-04-03T14:09:56.054Z,1.20
2023-04-03T14:13:00.111Z,1.20
2023-04-03T14:16:15.102Z,1.03
2023-04-03T14:19:25.398Z,1.27
2023-04-03T14:22:30.295Z,1.10
2023-04-03T14:25:32.941Z,1.00
2023-04-03T14:28:37.339Z,1.07
2023-04-03T14:31:40.301Z,0.90
2023-04-03T14:34:44.019Z,1.03
2023-04-03T14:37:47.732Z,1.00
2023-04-03T14:40:50.530Z,1.17
2023-04-03T14:43:55.826Z,1.17
2023-04-03T14:46:58.518Z,1.10
2023-04-03T14:50:02.270Z,1.00
2023-04-03T14:53:05.716Z,1.20
2023-04-03T14:56:14.103Z,0.90
2023-04-03T14:59:20.863Z,0.87
2023-04-03T15:02:29.134Z,1.10
2023-04-03T15:05:32.016Z,1.00
2023-04-03T15:08:34.717Z,1.17
2023-04-03T15:11:37.312Z,1.10
2023-04-03T15:14:52.000Z,1.40
2023-04-03T15:17:58.740Z,3.40
2023-04-03T15:21:01.801Z,1.20
2023-04-03T15:24:04.690Z,1.27
2023-04-03T15:27:07.392Z,1.40
2023-04-03T15:30:16.566Z,1.10
2023-04-03T15:33:19.317Z,1.30
2023-04-03T15:36:33.221Z,1.27
2023-04-03T15:39:37.355Z,0.97
2023-04-03T15:42:40.446Z,1.30
2023-04-03T15:45:46.004Z,1.20
2023-04-03T15:48:50.449Z,1.33
2023-04-03T15:51:53.025Z,1.00
2023-04-03T15:54:55.621Z,1.20
2023-04-03T15:57:58.799Z,1.10
2023-04-03T16:01:03.359Z,1.10
2023-04-03T16:04:07.017Z,0.97
2023-04-03T16:07:09.801Z,1.10
2023-04-03T16:10:14.625Z,1.20
2023-04-03T16:13:17.300Z,1.50
2023-04-03T16:16:21.418Z,1.30
2023-04-03T16:19:25.309Z,1.20
2023-04-03T16:22:30.661Z,1.00
2023-04-03T16:25:33.554Z,1.20
2023-04-03T16:28:36.220Z,1.30
2023-04-03T16:31:40.470Z,1.50
2023-04-03T16:34:43.259Z,1.67
2023-04-03T16:37:46.463Z,1.37
2023-04-03T16:40:49.369Z,1.33
2023-04-03T16:43:52.073Z,1.33
2023-04-03T16:46:56.196Z,1.60
2023-04-03T16:49:58.983Z,1.33
2023-04-03T16:53:03.780Z,1.27
2023-04-03T16:56:06.771Z,1.30
2023-04-03T16:59:09.379Z,1.20
2023-04-03T17:02:13.489Z,1.30
2023-04-03T17:05:16.212Z,1.27
2023-04-03T17:08:19.827Z,1.40
2023-04-03T17:11:22.553Z,1.40
2023-04-03T17:14:25.222Z,1.50
2023-04-03T17:17:29.269Z,1.30
2023-04-03T17:20:34.567Z,1.50
2023-04-03T17:23:38.347Z,1.47
2023-04-03T17:26:41.918Z,1.30
2023-04-03T17:29:44.493Z,1.13
2023-04-03T17:32:48.462Z,1.40
2023-04-03T17:35:51.110Z,1.23
2023-04-03T17:38:53.725Z,1.65
2023-04-03T17:41:56.514Z,1.40
2023-04-03T17:45:00.892Z,1.60
2023-04-03T17:48:05.777Z,1.67
2023-04-03T17:51:09.574Z,1.40
2023-04-03T17:54:12.423Z,1.50
2023-04-03T17:57:15.007Z,1.47
2023-04-03T18:00:18.916Z,1.50
2023-04-03T18:03:22.888Z,1.23
2023-04-03T18:06:29.580Z,1.37
2023-04-03T18:09:34.427Z,1.20
2023-04-03T18:12:37.784Z,1.83
2023-04-03T18:15:45.523Z,1.63
2023-04-03T18:18:54.024Z,1.73
2023-04-03T18:22:09.458Z,1.40
2023-04-03T18:25:14.162Z,1.60
2023-04-03T18:28:16.800Z,1.60
2023-04-03T18:31:19.905Z,2.30
2023-04-03T18:34:23.993Z,1.53
2023-04-03T18:37:26.867Z,1.97
2023-04-03T18:40:29.531Z,1.73
2023-04-03T18:43:32.504Z,1.67
2023-04-03T18:46:35.326Z,1.50
2023-04-03T18:49:41.846Z,1.60
2023-04-03T18:52:44.536Z,1.40
2023-04-03T18:55:47.330Z,1.70
2023-04-03T18:58:49.979Z,1.60
2023-04-03T19:01:52.911Z,1.60
2023-04-03T19:04:57.397Z,1.60
2023-04-03T19:08:00.173Z,1.40
2023-04-03T19:11:03.655Z,1.33
2023-04-03T19:14:15.952Z,1.77
2023-04-03T19:17:18.996Z,1.47
2023-04-03T19:20:23.008Z,1.30
2023-04-03T19:23:25.984Z,1.40
2023-04-03T19:26:28.639Z,1.43
2023-04-03T19:29:31.301Z,1.40
2023-04-03T19:32:33.947Z,1.50
2023-04-03T19:35:41.687Z,1.53
2023-04-03T19:38:44.503Z,1.40
2023-04-03T19:41:47.316Z,1.43
2023-04-03T19:44:50.579Z,1.30
2023-04-03T19:47:53.554Z,1.60
2023-04-03T19:50:57.576Z,1.80
2023-04-03T19:54:00.256Z,1.40
2023-04-03T19:57:03.024Z,1.67
2023-04-03T20:00:06.501Z,1.83
2023-04-03T20:03:09.194Z,1.63
2023-04-03T20:06:13.197Z,1.80
2023-04-03T20:09:16.076Z,1.50
2023-04-03T20:12:18.664Z,1.80
2023-04-03T20:15:21.335Z,1.70
2023-04-03T20:18:24.062Z,1.63
2023-04-03T20:21:32.406Z,1.53
2023-04-03T20:24:35.117Z,1.87
2023-04-03T20:27:39.497Z,1.80
2023-04-03T20:30:43.141Z,1.90
2023-04-03T20:33:46.139Z,2.27
2023-04-03T20:36:50.350Z,1.90
2023-04-03T20:39:53.398Z,3.10
2023-04-03T20:42:56.743Z,3.10
2023-04-03T20:46:00.540Z,2.40
2023-04-03T20:49:03.135Z,2.10
2023-04-03T20:52:07.119Z,1.87
2023-04-03T20:55:10.844Z,1.87
2023-04-03T20:58:13.582Z,1.50
2023-04-03T21:01:19.045Z,1.90
2023-04-03T21:04:26.519Z,2.00
2023-04-03T21:08:06.454Z,1.60
2023-04-03T21:11:47.030Z,1.70
2023-04-03T21:15:27.128Z,1.83
2023-04-03T21:19:01.952Z,1.47
2023-04-03T21:22:04.582Z,1.57
2023-04-03T21:25:08.830Z,1.90
2023-04-03T21:28:11.430Z,1.80
2023-04-03T21:31:15.185Z,1.60
2023-04-03T21:34:20.877Z,1.70
2023-04-03T21:37:23.844Z,1.50
2023-04-03T21:40:26.772Z,1.47
2023-04-03T21:43:29.634Z,1.63
2023-04-03T21:46:32.330Z,1.40
2023-04-03T21:49:36.276Z,1.47
2023-04-03T21:52:38.875Z,1.40
2023-04-03T21:55:41.493Z,1.40
2023-04-03T21:58:44.231Z,1.53
2023-04-03T22:01:47.027Z,1.60
2023-04-03T22:04:51.032Z,1.77
2023-04-03T22:07:54.224Z,1.50
2023-04-03T22:11:00.955Z,1.70
2023-04-03T22:14:03.546Z,1.40
2023-04-03T22:17:07.207Z,1.70
2023-04-03T22:20:11.865Z,1.60
2023-04-03T22:23:14.542Z,1.60
2023-04-03T22:26:17.530Z,1.53
2023-04-03T22:29:20.202Z,1.70
2023-04-03T22:32:22.834Z,1.70
2023-04-03T22:35:27.634Z,1.67
2023-04-03T22:38:30.320Z,1.90
2023-04-03T22:41:32.908Z,1.70
2023-04-03T22:44:36.686Z,1.50
2023-04-03T22:47:39.495Z,1.90
2023-04-03T22:50:43.867Z,2.17
2023-04-03T22:53:46.441Z,1.63
2023-04-03T22:56:49.064Z,2.00
2023-04-03T22:59:51.620Z,2.20
2023-04-03T23:02:54.337Z,1.87
2023-04-03T23:05:58.328Z,1.73
2023-04-03T23:09:01.140Z,1.50
2023-04-03T23:12:03.718Z,1.83
2023-04-03T23:15:07.537Z,1.90
2023-04-03T23:18:10.149Z,1.70
2023-04-03T23:21:14.152Z,1.60
2023-04-03T23:24:17.153Z,1.40
2023-04-03T23:27:19.785Z,1.70
2023-04-03T23:30:22.774Z,1.50
2023-04-03T23:33:25.427Z,1.50
2023-04-03T23:36:29.378Z,1.60
2023-04-03T23:39:33.020Z,1.57
2023-04-03T23:42:35.604Z,1.60
2023-04-03T23:45:38.563Z,1.40
2023-04-03T23:48:41.361Z,1.40
2023-04-03T23:51:45.463Z,1.60
2023-04-03T23:54:49.370Z,1.70
2023-04-03T23:57:51.972Z,1.50
